createdAt,value
2023-04-18T00:01:31.994Z,31.00
2023-04-18T00:04:35.120Z,31.20
2023-04-18T00:07:38.044Z,32.00
2023-04-18T00:10:40.189Z,32.20
2023-04-18T00:13:42.467Z,31.80
2023-04-18T00:16:45.821Z,31.50
2023-04-18T00:19:48.640Z,31.80
2023-04-18T00:22:53.234Z,32.00
2023-04-18T00:25:55.618Z,31.60
2023-04-18T00:28:57.881Z,31.30
2023-04-18T00:32:00.310Z,31.30
2023-04-18T00:35:03.207Z,30.30
2023-04-18T00:38:05.982Z,30.90
2023-04-18T00:41:07.977Z,31.80
2023-04-18T00:44:10.288Z,32.10
2023-04-18T00:47:12.219Z,32.30
2023-04-18T00:50:16.303Z,31.00
2023-04-18T00:53:18.833Z,30.90
2023-04-18T00:56:21.934Z,31.50
2023-04-18T00:59:24.440Z,31.00
2023-04-18T01:02:30.629Z,30.70
2023-04-18T01:05:33.124Z,31.50
2023-04-18T01:08:36.380Z,31.50
2023-04-18T01:11:38.408Z,32.00
2023-04-18T01:14:44.067Z,32.40
2023-04-18T01:17:46.349Z,32.50
2023-04-18T01:20:50.927Z,32.20
2023-04-18T01:23:53.864Z,31.10
2023-04-18T01:26:57.480Z,31.40
2023-04-18T01:30:00.232Z,32.60
2023-04-18T01:33:04.217Z,32.90
2023-04-18T01:36:06.766Z,32.80
2023-04-18T01:39:09.607Z,32.70
2023-04-18T01:42:11.498Z,32.40
2023-04-18T01:45:14.252Z,32.10
2023-04-18T01:48:16.422Z,31.80
2023-04-18T01:51:19.261Z,32.50
2023-04-18T01:54:21.453Z,32.00
2023-04-18T01:57:24.154Z,32.10
2023-04-18T02:00:26.790Z,32.30
2023-04-18T02:03:29.471Z,32.00
2023-04-18T02:06:32.186Z,32.40
2023-04-18T02:09:34.962Z,33.10
2023-04-18T02:12:37.106Z,32.60
2023-04-18T02:15:39.861Z,32.90
2023-04-18T02:18:44.221Z,33.70
2023-04-18T02:21:46.943Z,33.40
2023-04-18T02:24:49.093Z,34.00
2023-04-18T02:27:51.781Z,33.80
2023-04-18T02:30:53.877Z,33.00
2023-04-18T02:33:56.161Z,33.70
2023-04-18T02:36:58.176Z,34.00
2023-04-18T02:40:00.403Z,32.60
2023-04-18T02:43:02.788Z,32.30
2023-04-18T02:46:05.952Z,32.50
2023-04-18T02:49:08.647Z,32.60
2023-04-18T02:52:11.029Z,33.10
2023-04-18T02:55:16.289Z,33.20
2023-04-18T02:58:18.593Z,33.40
2023-04-18T03:01:21.244Z,34.20
2023-04-18T03:04:23.896Z,33.40
2023-04-18T03:07:26.285Z,33.60
2023-04-18T03:10:28.827Z,33.50
2023-04-18T03:13:31.146Z,33.60
2023-04-18T03:16:33.824Z,33.30
2023-04-18T03:19:36.613Z,34.30
2023-04-18T03:22:39.916Z,33.60
2023-04-18T03:25:41.983Z,32.90
2023-04-18T03:28:44.323Z,33.10
2023-04-18T03:31:47.093Z,33.10
2023-04-18T03:34:50.949Z,33.50
2023-04-18T03:37:53.133Z,33.60
2023-04-18T03:40:55.655Z,33.40
2023-04-18T03:43:57.721Z,33.60
2023-04-18T03:47:00.398Z,33.10
2023-04-18T03:50:02.644Z,33.50
2023-04-18T03:53:05.150Z,32.90
2023-04-18T03:56:07.314Z,32.80
2023-04-18T03:59:10.353Z,32.80
2023-04-18T04:02:12.913Z,33.30
2023-04-18T04:05:15.742Z,34.40
2023-04-18T04:08:17.806Z,34.60
2023-04-18T04:11:21.057Z,34.30
2023-04-18T04:14:24.643Z,33.00
2023-04-18T04:17:27.404Z,33.10
2023-04-18T04:20:29.815Z,33.10
2023-04-18T04:23:33.122Z,34.80
2023-04-18T04:26:35.660Z,34.50
2023-04-18T04:29:39.122Z,35.10
2023-04-18T04:32:41.799Z,33.80
2023-04-18T04:35:45.044Z,33.20
2023-04-18T04:38:47.393Z,33.10
2023-04-18T04:41:50.234Z,34.10
2023-04-18T04:44:53.779Z,33.70
2023-04-18T04:47:56.749Z,34.00
2023-04-18T04:51:00.690Z,34.50
2023-04-18T04:54:03.830Z,35.10
2023-04-18T04:57:06.209Z,33.50
2023-04-18T05:00:09.579Z,33.10
2023-04-18T05:03:12.033Z,32.90
2023-04-18T05:06:20.495Z,32.90
2023-04-18T05:09:22.716Z,33.00
2023-04-18T05:12:27.047Z,32.70
2023-04-18T05:15:29.341Z,32.00
2023-04-18T05:18:33.713Z,32.10
2023-04-18T05:21:37.931Z,32.20
2023-04-18T05:24:41.539Z,33.60
2023-04-18T05:27:44.191Z,33.90
2023-04-18T05:30:47.241Z,34.80
2023-04-18T05:33:49.462Z,34.20
2023-04-18T05:36:52.094Z,34.70
2023-04-18T05:41:00.171Z,34.90
2023-04-18T05:44:24.289Z,33.90
2023-04-18T05:51:32.123Z,33.80
2023-04-18T05:54:36.890Z,34.90
2023-04-18T05:57:40.513Z,34.30
2023-04-18T06:00:44.534Z,34.80
2023-04-18T06:04:08.239Z,35.40
2023-04-18T06:07:13.211Z,35.60
2023-04-18T06:10:15.824Z,37.00
2023-04-18T06:14:02.790Z,36.40
2023-04-18T06:17:21.856Z,36.20
2023-04-18T06:20:24.162Z,34.80
2023-04-18T06:23:38.075Z,34.80
2023-04-18T06:26:47.297Z,33.70
2023-04-18T06:30:00.816Z,34.10
2023-04-18T06:33:03.084Z,33.80
2023-04-18T06:36:05.979Z,33.10
2023-04-18T06:40:04.932Z,32.90
2023-04-18T06:43:18.097Z,33.10
2023-04-18T06:46:20.359Z,32.30
2023-04-18T06:49:31.864Z,32.40
2023-04-18T06:52:40.558Z,33.10
2023-04-18T06:55:54.539Z,32.60
2023-04-18T07:03:11.628Z,32.60
2023-04-18T07:10:40.621Z,31.60
2023-04-18T07:13:47.335Z,30.50
2023-04-18T07:16:55.321Z,31.00
2023-04-18T07:20:58.146Z,30.30
2023-04-18T07:24:20.368Z,31.30
2023-04-18T07:36:14.936Z,32.50
2023-04-18T07:39:58.299Z,32.10
2023-04-18T07:43:19.224Z,32.70
2023-04-18T07:47:22.610Z,32.20
2023-04-18T07:51:35.998Z,31.50
2023-04-18T07:55:00.718Z,32.00
2023-04-18T07:59:17.976Z,32.20
2023-04-18T08:03:24.925Z,31.30
2023-04-18T08:08:15.352Z,30.20
2023-04-18T08:16:19.292Z,31.00
2023-04-18T08:19:21.604Z,31.20
2023-04-18T08:22:23.565Z,31.90
2023-04-18T08:30:57.044Z,30.80
2023-04-18T08:34:08.581Z,30.20
2023-04-18T08:41:48.344Z,31.20
2023-04-18T08:45:09.381Z,31.90
2023-04-18T08:49:38.827Z,30.90
2023-04-18T08:53:48.658Z,31.00
2023-04-18T08:57:33.774Z,31.50
2023-04-18T09:01:06.593Z,30.80
2023-04-18T09:05:09.371Z,30.00
2023-04-18T09:08:34.574Z,30.20
2023-04-18T09:12:23.879Z,30.30
2023-04-18T09:15:33.373Z,30.70
2023-04-18T09:19:14.599Z,30.90
2023-04-18T09:22:18.172Z,30.10
2023-04-18T09:25:53.251Z,30.00
2023-04-18T09:29:15.659Z,29.60
2023-04-18T09:33:07.783Z,30.00
2023-04-18T09:36:38.260Z,30.00
2023-04-18T09:39:55.558Z,30.10
2023-04-18T09:43:01.858Z,29.40
2023-04-18T09:46:09.413Z,29.30
2023-04-18T09:49:26.487Z,29.70
2023-04-18T09:52:54.216Z,29.40
2023-04-18T09:56:48.420Z,29.30
2023-04-18T10:00:37.706Z,30.30
2023-04-18T10:03:57.221Z,30.80
2023-04-18T10:07:00.737Z,30.90
2023-04-18T10:10:02.799Z,30.70
2023-04-18T10:13:27.709Z,30.50
2023-04-18T10:16:40.231Z,30.00
2023-04-18T10:19:47.037Z,30.40
2023-04-18T10:23:22.617Z,30.30
2023-04-18T10:26:54.259Z,31.00
2023-04-18T10:30:17.721Z,30.70
2023-04-18T10:33:42.850Z,30.90
2023-04-18T10:37:11.384Z,30.80
2023-04-18T10:40:20.184Z,30.80
2023-04-18T10:43:23.689Z,30.50
2023-04-18T10:46:34.698Z,30.20
2023-04-18T10:49:37.757Z,30.10
2023-04-18T10:52:51.084Z,29.30
2023-04-18T10:56:03.846Z,29.80
2023-04-18T10:59:12.637Z,29.40
2023-04-18T11:02:33.730Z,29.60
2023-04-18T11:05:40.085Z,29.60
2023-04-18T11:08:45.722Z,29.60
2023-04-18T11:12:23.878Z,29.70
2023-04-18T11:15:37.406Z,29.80
2023-04-18T11:19:26.371Z,31.00
2023-04-18T11:23:18.846Z,30.80
2023-04-18T11:26:48.738Z,30.40
2023-04-18T11:29:55.015Z,29.60
2023-04-18T11:33:15.610Z,29.70
2023-04-18T11:36:37.154Z,30.70
2023-04-18T11:40:37.902Z,29.70
2023-04-18T11:44:19.854Z,29.60
2023-04-18T11:47:50.342Z,30.20
2023-04-18T11:51:32.793Z,30.60
2023-04-18T11:54:53.119Z,31.00
2023-04-18T12:01:44.365Z,29.40
2023-04-18T12:09:11.516Z,29.60
2023-04-18T12:12:35.225Z,29.50
2023-04-18T12:17:02.951Z,30.10
2023-04-18T12:20:24.960Z,30.10
2023-04-18T12:23:46.300Z,29.40
2023-04-18T12:26:56.867Z,29.90
2023-04-18T12:30:04.222Z,29.70
2023-04-18T12:33:08.151Z,31.00
2023-04-18T12:36:19.629Z,30.20
2023-04-18T12:39:22.545Z,31.30
2023-04-18T12:42:25.556Z,31.10
2023-04-18T12:45:44.901Z,31.00
2023-04-18T12:49:00.167Z,31.30
2023-04-18T12:52:07.633Z,31.20
2023-04-18T12:55:11.018Z,30.30
2023-04-18T12:58:18.464Z,30.70
2023-04-18T13:01:20.943Z,30.40
2023-04-18T13:04:27.025Z,29.90
2023-04-18T13:07:45.614Z,30.20
2023-04-18T13:10:55.023Z,30.30
2023-04-18T13:14:02.843Z,30.70
2023-04-18T13:17:08.817Z,29.70
2023-04-18T13:20:17.763Z,30.30
2023-04-18T13:23:22.138Z,31.40
2023-04-18T13:26:24.721Z,30.00
2023-04-18T13:29:29.868Z,30.00
2023-04-18T13:32:35.917Z,30.80
2023-04-18T13:35:38.533Z,30.80
2023-04-18T13:38:53.782Z,30.00
2023-04-18T13:41:55.991Z,29.10
2023-04-18T13:45:07.718Z,28.90
2023-04-18T13:48:14.432Z,29.20
2023-04-18T13:51:22.250Z,30.50
2023-04-18T13:54:26.677Z,31.00
2023-04-18T13:57:47.685Z,30.20
2023-04-18T14:00:52.420Z,30.70
2023-04-18T14:03:56.227Z,31.00
2023-04-18T14:06:58.459Z,30.90
2023-04-18T14:10:01.445Z,31.80
2023-04-18T14:13:18.007Z,30.80
2023-04-18T14:16:21.232Z,30.20
2023-04-18T14:19:23.804Z,30.40
2023-04-18T14:22:27.033Z,30.50
2023-04-18T14:25:30.359Z,29.60
2023-04-18T14:28:33.053Z,29.20
2023-04-18T14:31:37.871Z,28.90
2023-04-18T14:34:42.656Z,29.40
2023-04-18T14:37:45.469Z,29.80
2023-04-18T14:41:09.754Z,29.40
2023-04-18T14:44:28.765Z,29.60
2023-04-18T14:47:39.489Z,30.30
2023-04-18T14:50:42.064Z,30.20
2023-04-18T14:53:45.638Z,29.80
2023-04-18T14:56:47.695Z,30.00
2023-04-18T14:59:50.974Z,29.60
2023-04-18T15:02:53.731Z,29.60
2023-04-18T15:05:59.632Z,29.60
2023-04-18T15:09:09.090Z,29.20
2023-04-18T15:12:11.640Z,29.30
2023-04-18T15:15:13.755Z,28.90
2023-04-18T15:18:16.032Z,28.20
2023-04-18T15:21:18.069Z,28.10
2023-04-18T15:24:20.789Z,28.70
2023-04-18T15:27:23.011Z,28.50
2023-04-18T15:30:28.317Z,27.80
2023-04-18T15:33:30.634Z,28.10
2023-04-18T15:36:33.533Z,28.50
2023-04-18T15:39:36.506Z,28.00
2023-04-18T15:42:39.417Z,27.90
2023-04-18T15:45:44.391Z,27.40
2023-04-18T15:48:47.033Z,27.00
2023-04-18T15:51:49.135Z,28.00
2023-04-18T15:54:55.660Z,28.20
2023-04-18T15:57:57.603Z,27.70
2023-04-18T16:01:00.293Z,28.50
2023-04-18T16:04:02.549Z,29.10
2023-04-18T16:07:58.802Z,28.70
2023-04-18T16:11:08.277Z,29.00
2023-04-18T16:14:11.438Z,29.30
2023-04-18T16:17:13.817Z,29.00
2023-04-18T16:20:16.367Z,29.00
2023-04-18T16:23:21.325Z,29.20
2023-04-18T16:26:26.879Z,29.20
2023-04-18T16:29:29.714Z,29.50
2023-04-18T16:32:41.353Z,29.70
2023-04-18T16:36:00.101Z,29.60
2023-04-18T16:39:24.366Z,29.90
2023-04-18T16:42:36.974Z,29.40
2023-04-18T16:45:45.773Z,29.40
2023-04-18T16:57:10.405Z,28.70
2023-04-18T17:00:58.624Z,29.30
2023-04-18T17:08:34.562Z,28.40
2023-04-18T17:11:51.672Z,28.80
2023-04-18T17:14:54.182Z,28.50
2023-04-18T17:17:56.705Z,28.50
2023-04-18T17:20:59.278Z,29.20
2023-04-18T17:25:32.665Z,29.50
2023-04-18T17:28:49.620Z,28.90
2023-04-18T17:39:49.114Z,27.80
2023-04-18T17:47:01.431Z,27.70
2023-04-18T17:50:37.698Z,27.80
2023-04-18T17:53:47.132Z,28.10
2023-04-18T17:56:52.193Z,27.90
2023-04-18T17:59:55.986Z,27.60
2023-04-18T18:03:01.609Z,27.90
2023-04-18T18:18:59.847Z,28.80
2023-04-18T18:26:29.166Z,30.20
2023-04-18T18:34:07.226Z,30.50
2023-04-18T18:37:12.914Z,30.30
2023-04-18T18:40:43.796Z,29.80
2023-04-18T18:44:38.741Z,30.70
2023-04-18T18:48:21.352Z,30.00
2023-04-18T18:52:11.121Z,30.20
2023-04-18T18:55:30.748Z,30.60
2023-04-18T19:03:00.474Z,28.70
2023-04-18T19:06:42.035Z,28.30
2023-04-18T19:09:48.388Z,28.50
2023-04-18T19:12:53.860Z,28.40
2023-04-18T19:16:30.852Z,29.20
2023-04-18T19:24:04.414Z,30.00
2023-04-18T19:28:01.511Z,29.80
2023-04-18T19:31:15.699Z,30.00
2023-04-18T19:34:23.321Z,30.70
2023-04-18T19:37:33.334Z,30.80
2023-04-18T19:41:27.941Z,31.80
2023-04-18T19:45:12.095Z,31.10
2023-04-18T19:48:54.091Z,31.50
2023-04-18T19:52:42.692Z,30.40
2023-04-18T19:56:30.419Z,30.20
2023-04-18T20:00:16.484Z,30.60
2023-04-18T20:04:31.917Z,31.50
2023-04-18T20:08:30.957Z,32.40
2023-04-18T20:16:28.394Z,31.30
2023-04-18T20:20:22.194Z,31.90
2023-04-18T20:24:05.876Z,31.40
2023-04-18T20:27:20.589Z,30.90
2023-04-18T20:30:36.363Z,30.30
2023-04-18T20:37:27.101Z,30.80
2023-04-18T20:44:50.173Z,32.50
2023-04-18T20:48:10.079Z,33.20
2023-04-18T20:51:40.101Z,32.70
2023-04-18T20:59:43.035Z,31.50
2023-04-18T21:03:34.385Z,31.10
2023-04-18T21:07:21.131Z,32.40
2023-04-18T21:14:12.053Z,30.50
2023-04-18T21:17:23.498Z,31.10
2023-04-18T21:20:32.170Z,32.00
2023-04-18T21:27:40.307Z,31.90
2023-04-18T21:31:24.708Z,31.20
2023-04-18T21:35:18.622Z,32.00
2023-04-18T21:38:27.725Z,31.60
2023-04-18T21:46:09.709Z,30.00
2023-04-18T21:49:53.592Z,29.80
2023-04-18T21:53:12.765Z,29.00
2023-04-18T21:56:45.212Z,28.90
2023-04-18T22:00:12.376Z,28.70
2023-04-18T22:03:51.776Z,28.60
2023-04-18T22:11:16.420Z,25.60
2023-04-18T22:14:48.341Z,25.20
2023-04-18T22:17:54.285Z,24.90
2023-04-18T22:21:25.184Z,23.90
2023-04-18T22:24:56.565Z,24.20
2023-04-18T22:28:25.109Z,25.00
2023-04-18T22:31:27.357Z,25.50
2023-04-18T22:35:50.324Z,26.60
2023-04-18T22:39:27.918Z,27.60
2023-04-18T22:42:37.368Z,29.20
2023-04-18T22:45:45.411Z,30.00
2023-04-18T22:49:42.496Z,30.50
2023-04-18T22:53:18.196Z,29.10
2023-04-18T22:56:32.828Z,28.90
2023-04-18T22:59:53.395Z,27.80
2023-04-18T23:02:55.804Z,28.10
2023-04-18T23:07:05.671Z,26.30
2023-04-18T23:10:43.304Z,26.50
2023-04-18T23:13:48.296Z,25.90
2023-04-18T23:17:07.683Z,26.20
2023-04-18T23:20:50.301Z,26.00
2023-04-18T23:24:06.158Z,25.50
2023-04-18T23:27:55.152Z,25.00
2023-04-18T23:32:30.662Z,24.40
2023-04-18T23:36:08.943Z,24.40
2023-04-18T23:39:55.558Z,24.10
2023-04-18T23:43:29.480Z,24.40
2023-04-18T23:46:31.532Z,24.50
2023-04-18T23:50:34.928Z,24.90
2023-04-18T23:54:19.632Z,24.80
2023-04-18T23:57:23.456Z,25.70
